sensor_id;sensor_type;location;lat;lon;timestamp;pressure;altitude;pressure_sealevel;temperature;humidity
5780;BME280;2916;49.798;10.022;2023-03-20T00:00:51;146512.31;;;8.99;93.27
5780;BME280;2916;49.798;10.022;2023-03-20T00:03:18;146459.06;;;8.77;92.03
5780;BME280;2916;49.798;10.022;2023-03-20T00:05:46;146449.13;;;8.73;92.72
5780;BME280;2916;49.798;10.022;2023-03-20T00:08:14;146488.78;;;8.90;93.18
5780;BME280;2916;49.798;10.022;2023-03-20T00:10:44;146387.16;;;8.48;92.98
5780;BME280;2916;49.798;10.022;2023-03-20T00:13:24;146463.97;;;8.79;92.98
5780;BME280;2916;49.798;10.022;2023-03-20T00:15:53;146498.69;;;8.94;93.16
5780;BME280;2916;49.798;10.022;2023-03-20T00:18:22;146456.59;;;8.76;92.60
5780;BME280;2916;49.798;10.022;2023-03-20T00:20:51;146381.00;;;8.45;93.56
5780;BME280;2916;49.798;10.022;2023-03-20T00:23:19;146478.88;;;8.85;94.07
5780;BME280;2916;49.798;10.022;2023-03-20T00:25:46;146490.03;;;8.90;94.23
5780;BME280;2916;49.798;10.022;2023-03-20T00:28:34;146476.41;;;8.84;94.24
5780;BME280;2916;49.798;10.022;2023-03-20T00:31:04;146475.13;;;8.84;94.11
5780;BME280;2916;49.798;10.022;2023-03-20T00:33:32;146476.41;;;8.84;94.55
5780;BME280;2916;49.798;10.022;2023-03-20T00:35:59;146378.47;;;8.44;94.56
5780;BME280;2916;49.798;10.022;2023-03-20T00:38:27;146492.50;;;8.91;94.60
5780;BME280;2916;49.798;10.022;2023-03-20T00:40:54;146499.94;;;8.94;94.68
5780;BME280;2916;49.798;10.022;2023-03-20T00:43:23;146472.66;;;8.83;94.70
5780;BME280;2916;49.798;10.022;2023-03-20T00:45:50;146473.91;;;8.83;94.76
5780;BME280;2916;49.798;10.022;2023-03-20T00:48:17;146491.25;;;8.91;94.51
5780;BME280;2916;49.798;10.022;2023-03-20T00:50:44;146498.69;;;8.94;94.46
5780;BME280;2916;49.798;10.022;2023-03-20T00:53:11;146486.31;;;8.89;94.79
5780;BME280;2916;49.798;10.022;2023-03-20T00:55:39;146456.59;;;8.76;94.77
5780;BME280;2916;49.798;10.022;2023-03-20T00:58:06;146501.16;;;8.95;95.30
5780;BME280;2916;49.798;10.022;2023-03-20T01:00:40;146495.00;;;8.92;95.24
5780;BME280;2916;49.798;10.022;2023-03-20T01:03:14;146503.63;;;8.96;95.69
5780;BME280;2916;49.798;10.022;2023-03-20T01:05:43;146478.88;;;8.85;95.27
5780;BME280;2916;49.798;10.022;2023-03-20T01:08:17;146495.00;;;8.92;95.19
5780;BME280;2916;49.798;10.022;2023-03-20T01:10:47;146382.22;;;8.46;95.52
5780;BME280;2916;49.798;10.022;2023-03-20T01:13:21;146460.28;;;8.78;95.52
5780;BME280;2916;49.798;10.022;2023-03-20T01:15:51;146444.16;;;8.71;95.62
5780;BME280;2916;49.798;10.022;2023-03-20T01:18:21;146514.84;;;9.00;95.40
5780;BME280;2916;49.798;10.022;2023-03-20T01:20:49;146513.56;;;9.00;95.42
5780;BME280;2916;49.798;10.022;2023-03-20T01:23:18;146491.25;;;8.91;95.22
5780;BME280;2916;49.798;10.022;2023-03-20T01:25:45;146456.59;;;8.76;95.08
5780;BME280;2916;49.798;10.022;2023-03-20T01:28:16;146463.97;;;8.79;95.19
5780;BME280;2916;49.798;10.022;2023-03-20T01:30:44;146473.91;;;8.83;94.75
5780;BME280;2916;49.798;10.022;2023-03-20T01:33:16;146390.91;;;8.49;95.41
5780;BME280;2916;49.798;10.022;2023-03-20T01:35:45;146446.63;;;8.72;95.56
5780;BME280;2916;49.798;10.022;2023-03-20T01:38:17;146410.72;;;8.57;96.49
5780;BME280;2916;49.798;10.022;2023-03-20T01:40:53;146476.41;;;8.84;96.93
5780;BME280;2916;49.798;10.022;2023-03-20T01:43:25;146404.50;;;8.55;97.38
5780;BME280;2916;49.798;10.022;2023-03-20T01:46:01;146456.59;;;8.76;97.31
5780;BME280;2916;49.798;10.022;2023-03-20T01:48:56;146420.63;;;8.62;97.49
5780;BME280;2916;49.798;10.022;2023-03-20T01:51:25;146481.34;;;8.87;97.48
5780;BME280;2916;49.798;10.022;2023-03-20T01:53:57;146492.50;;;8.91;96.99
5780;BME280;2916;49.798;10.022;2023-03-20T01:56:30;146459.06;;;8.77;96.12
5780;BME280;2916;49.798;10.022;2023-03-20T01:59:03;146411.97;;;8.58;95.87
5780;BME280;2916;49.798;10.022;2023-03-20T02:01:33;146430.53;;;8.66;97.19
5780;BME280;2916;49.798;10.022;2023-03-20T02:04:03;146446.63;;;8.72;96.94
5780;BME280;2916;49.798;10.022;2023-03-20T02:06:31;146451.59;;;8.74;96.88
5780;BME280;2916;49.798;10.022;2023-03-20T02:08:59;146428.06;;;8.65;96.72
5780;BME280;2916;49.798;10.022;2023-03-20T02:11:26;146434.25;;;8.67;97.65
5780;BME280;2916;49.798;10.022;2023-03-20T02:13:58;146405.75;;;8.55;97.67
5780;BME280;2916;49.798;10.022;2023-03-20T02:16:26;146397.06;;;8.52;97.99
5780;BME280;2916;49.798;10.022;2023-03-20T02:18:56;146400.81;;;8.53;98.59
5780;BME280;2916;49.798;10.022;2023-03-20T02:22:13;146395.84;;;8.51;98.83
5780;BME280;2916;49.798;10.022;2023-03-20T02:29:01;146330.09;;;8.24;97.41
5780;BME280;2916;49.798;10.022;2023-03-20T02:39:10;146283.03;;;8.05;98.53
5780;BME280;2916;49.798;10.022;2023-03-20T02:41:47;146275.63;;;8.02;99.55
5780;BME280;2916;49.798;10.022;2023-03-20T02:44:24;146289.25;;;8.07;100.00
5780;BME280;2916;49.798;10.022;2023-03-20T02:47:01;146280.56;;;8.04;100.00
5780;BME280;2916;49.798;10.022;2023-03-20T02:49:48;146177.75;;;7.61;100.00
5780;BME280;2916;49.798;10.022;2023-03-20T02:52:20;146134.44;;;7.44;100.00
5780;BME280;2916;49.798;10.022;2023-03-20T02:55:07;146167.84;;;7.57;100.00
5780;BME280;2916;49.798;10.022;2023-03-20T02:57:48;146243.41;;;7.88;100.00
5780;BME280;2916;49.798;10.022;2023-03-20T03:00:26;146259.53;;;7.95;100.00
5780;BME280;2916;49.798;10.022;2023-03-20T03:03:03;146237.25;;;7.86;100.00
5780;BME280;2916;49.798;10.022;2023-03-20T03:05:36;146119.56;;;7.37;100.00
5780;BME280;2916;49.798;10.022;2023-03-20T03:08:07;146203.78;;;7.72;100.00
5780;BME280;2916;49.798;10.022;2023-03-20T03:10:44;146187.66;;;7.66;100.00
5780;BME280;2916;49.798;10.022;2023-03-20T03:13:20;146201.31;;;7.71;100.00
5780;BME280;2916;49.798;10.022;2023-03-20T03:15:53;146203.78;;;7.72;100.00
5780;BME280;2916;49.798;10.022;2023-03-20T03:18:24;146162.94;;;7.55;100.00
5780;BME280;2916;49.798;10.022;2023-03-20T03:20:57;146179.00;;;7.62;100.00
5780;BME280;2916;49.798;10.022;2023-03-20T03:23:28;146098.53;;;7.29;100.00
5780;BME280;2916;49.798;10.022;2023-03-20T03:25:59;146170.38;;;7.58;100.00
5780;BME280;2916;49.798;10.022;2023-03-20T03:28:33;146198.81;;;7.70;100.00
5780;BME280;2916;49.798;10.022;2023-03-20T03:31:07;146192.66;;;7.68;100.00
5780;BME280;2916;49.798;10.022;2023-03-20T03:33:38;146148.06;;;7.49;100.00
5780;BME280;2916;49.798;10.022;2023-03-20T03:36:15;146177.75;;;7.61;100.00
5780;BME280;2916;49.798;10.022;2023-03-20T03:38:55;146182.75;;;7.63;100.00
5780;BME280;2916;49.798;10.022;2023-03-20T03:41:31;146176.53;;;7.61;100.00
5780;BME280;2916;49.798;10.022;2023-03-20T03:44:10;146082.44;;;7.22;100.00
5780;BME280;2916;49.798;10.022;2023-03-20T03:46:44;146151.78;;;7.51;100.00
5780;BME280;2916;49.798;10.022;2023-03-20T03:49:17;146139.38;;;7.46;100.00
5780;BME280;2916;49.798;10.022;2023-03-20T03:51:54;146145.59;;;7.48;100.00
5780;BME280;2916;49.798;10.022;2023-03-20T03:54:27;146171.59;;;7.59;100.00
5780;BME280;2916;49.798;10.022;2023-03-20T03:57:00;146188.91;;;7.66;100.00
5780;BME280;2916;49.798;10.022;2023-03-20T03:59:35;146203.78;;;7.72;100.00
5780;BME280;2916;49.798;10.022;2023-03-20T04:02:05;146217.38;;;7.78;100.00
5780;BME280;2916;49.798;10.022;2023-03-20T04:04:39;146222.38;;;7.80;100.00
5780;BME280;2916;49.798;10.022;2023-03-20T04:07:08;146196.34;;;7.69;100.00
5780;BME280;2916;49.798;10.022;2023-03-20T04:09:35;146216.16;;;7.77;100.00
5780;BME280;2916;49.798;10.022;2023-03-20T04:12:05;146169.09;;;7.58;100.00
5780;BME280;2916;49.798;10.022;2023-03-20T04:14:33;146231.03;;;7.83;100.00
5780;BME280;2916;49.798;10.022;2023-03-20T04:17:00;146226.06;;;7.81;100.00
5780;BME280;2916;49.798;10.022;2023-03-20T04:19:27;146213.69;;;7.76;100.00
5780;BME280;2916;49.798;10.022;2023-03-20T04:21:54;146226.06;;;7.81;100.00
5780;BME280;2916;49.798;10.022;2023-03-20T04:24:22;146228.56;;;7.82;100.00
5780;BME280;2916;49.798;10.022;2023-03-20T04:26:49;146211.22;;;7.75;100.00
5780;BME280;2916;49.798;10.022;2023-03-20T04:29:18;146037.91;;;7.04;100.00
5780;BME280;2916;49.798;10.022;2023-03-20T04:31:45;146231.03;;;7.83;100.00
5780;BME280;2916;49.798;10.022;2023-03-20T04:34:12;146237.25;;;7.86;100.00
5780;BME280;2916;49.798;10.022;2023-03-20T04:36:39;146233.50;;;7.84;100.00
5780;BME280;2916;49.798;10.022;2023-03-20T04:39:07;146238.47;;;7.86;100.00
5780;BME280;2916;49.798;10.022;2023-03-20T04:41:34;146186.44;;;7.65;100.00
5780;BME280;2916;49.798;10.022;2023-03-20T04:44:01;146240.94;;;7.87;100.00
5780;BME280;2916;49.798;10.022;2023-03-20T04:46:29;146240.94;;;7.87;100.00
5780;BME280;2916;49.798;10.022;2023-03-20T04:48:56;146188.91;;;7.66;100.00
5780;BME280;2916;49.798;10.022;2023-03-20T04:51:23;146217.38;;;7.78;100.00
5780;BME280;2916;49.798;10.022;2023-03-20T04:53:51;146239.72;;;7.87;100.00
5780;BME280;2916;49.798;10.022;2023-03-20T04:56:18;146217.38;;;7.78;100.00
5780;BME280;2916;49.798;10.022;2023-03-20T04:58:45;146231.03;;;7.83;100.00
5780;BME280;2916;49.798;10.022;2023-03-20T05:01:12;146258.28;;;7.95;100.00
5780;BME280;2916;49.798;10.022;2023-03-20T05:03:41;146238.47;;;7.86;100.00
5780;BME280;2916;49.798;10.022;2023-03-20T05:06:08;146175.31;;;7.60;100.00
5780;BME280;2916;49.798;10.022;2023-03-20T05:08:35;146258.28;;;7.95;100.00
5780;BME280;2916;49.798;10.022;2023-03-20T05:11:03;146259.53;;;7.95;100.00
5780;BME280;2916;49.798;10.022;2023-03-20T05:13:30;146248.38;;;7.91;100.00
5780;BME280;2916;49.798;10.022;2023-03-20T05:15:57;146203.78;;;7.72;100.00
5780;BME280;2916;49.798;10.022;2023-03-20T05:18:25;146248.38;;;7.91;100.00
5780;BME280;2916;49.798;10.022;2023-03-20T05:20:54;146235.97;;;7.85;100.00
5780;BME280;2916;49.798;10.022;2023-03-20T05:23:21;146279.34;;;8.03;100.00
5780;BME280;2916;49.798;10.022;2023-03-20T05:25:48;146283.03;;;8.05;100.00
5780;BME280;2916;49.798;10.022;2023-03-20T05:28:16;146290.47;;;8.08;100.00
5780;BME280;2916;49.798;10.022;2023-03-20T05:30:43;146294.19;;;8.09;100.00
5780;BME280;2916;49.798;10.022;2023-03-20T05:33:10;146300.38;;;8.12;100.00
5780;BME280;2916;49.798;10.022;2023-03-20T05:35:37;146296.69;;;8.10;100.00
5780;BME280;2916;49.798;10.022;2023-03-20T05:38:05;146300.38;;;8.12;100.00
5780;BME280;2916;49.798;10.022;2023-03-20T05:40:32;146295.44;;;8.10;100.00
5780;BME280;2916;49.798;10.022;2023-03-20T05:42:59;146292.94;;;8.09;100.00
5780;BME280;2916;49.798;10.022;2023-03-20T05:45:27;146280.56;;;8.04;100.00
5780;BME280;2916;49.798;10.022;2023-03-20T05:47:54;146259.53;;;7.95;100.00
5780;BME280;2916;49.798;10.022;2023-03-20T05:50:21;146307.84;;;8.15;100.00
5780;BME280;2916;49.798;10.022;2023-03-20T05:52:49;146307.84;;;8.15;100.00
5780;BME280;2916;49.798;10.022;2023-03-20T05:55:17;146315.28;;;8.18;100.00
5780;BME280;2916;49.798;10.022;2023-03-20T05:57:44;146328.88;;;8.24;100.00
5780;BME280;2916;49.798;10.022;2023-03-20T06:00:12;146328.88;;;8.24;100.00
5780;BME280;2916;49.798;10.022;2023-03-20T06:02:40;146337.56;;;8.27;100.00
5780;BME280;2916;49.798;10.022;2023-03-20T06:05:08;146288.00;;;8.07;100.00
5780;BME280;2916;49.798;10.022;2023-03-20T06:07:35;146349.94;;;8.32;100.00
5780;BME280;2916;49.798;10.022;2023-03-20T06:10:04;146352.44;;;8.33;100.00
5780;BME280;2916;49.798;10.022;2023-03-20T06:12:32;146289.25;;;8.07;100.00
5780;BME280;2916;49.798;10.022;2023-03-20T06:15:00;146364.88;;;8.39;100.00
5780;BME280;2916;49.798;10.022;2023-03-20T06:17:27;146372.31;;;8.42;100.00
5780;BME280;2916;49.798;10.022;2023-03-20T06:19:54;146379.72;;;8.45;100.00
5780;BME280;2916;49.798;10.022;2023-03-20T06:22:21;146294.19;;;8.09;100.00
5780;BME280;2916;49.798;10.022;2023-03-20T06:24:48;146377.25;;;8.44;100.00
5780;BME280;2916;49.798;10.022;2023-03-20T06:27:15;146351.16;;;8.33;100.00
5780;BME280;2916;49.798;10.022;2023-03-20T06:29:44;146394.59;;;8.51;100.00
5780;BME280;2916;49.798;10.022;2023-03-20T06:32:11;146359.84;;;8.36;100.00
5780;BME280;2916;49.798;10.022;2023-03-20T06:34:39;146402.03;;;8.54;100.00
5780;BME280;2916;49.798;10.022;2023-03-20T06:37:07;146345.00;;;8.30;100.00
5780;BME280;2916;49.798;10.022;2023-03-20T06:39:34;146404.50;;;8.55;100.00
5780;BME280;2916;49.798;10.022;2023-03-20T06:42:01;146434.25;;;8.67;100.00
5780;BME280;2916;49.798;10.022;2023-03-20T06:44:28;146444.16;;;8.71;100.00
5780;BME280;2916;49.798;10.022;2023-03-20T06:46:57;146431.78;;;8.66;100.00
5780;BME280;2916;49.798;10.022;2023-03-20T06:49:24;146450.38;;;8.74;100.00
5780;BME280;2916;49.798;10.022;2023-03-20T06:51:52;146379.72;;;8.45;100.00
5780;BME280;2916;49.798;10.022;2023-03-20T06:54:19;146496.25;;;8.93;100.00
5780;BME280;2916;49.798;10.022;2023-03-20T06:56:47;146486.31;;;8.89;100.00
5780;BME280;2916;49.798;10.022;2023-03-20T06:59:14;146518.53;;;9.02;100.00
5780;BME280;2916;49.798;10.022;2023-03-20T07:01:41;146538.34;;;9.10;100.00
5780;BME280;2916;49.798;10.022;2023-03-20T07:04:10;146508.63;;;8.98;100.00
5780;BME280;2916;49.798;10.022;2023-03-20T07:06:37;146476.41;;;8.84;100.00
5780;BME280;2916;49.798;10.022;2023-03-20T07:09:04;146476.41;;;8.84;100.00
5780;BME280;2916;49.798;10.022;2023-03-20T07:11:32;146517.31;;;9.01;100.00
5780;BME280;2916;49.798;10.022;2023-03-20T07:14:00;146555.72;;;9.17;100.00
5780;BME280;2916;49.798;10.022;2023-03-20T07:16:28;146550.75;;;9.15;100.00
5780;BME280;2916;49.798;10.022;2023-03-20T07:18:56;146550.75;;;9.15;100.00
5780;BME280;2916;49.798;10.022;2023-03-20T07:21:25;146521.00;;;9.03;100.00
5780;BME280;2916;49.798;10.022;2023-03-20T07:23:52;146548.28;;;9.14;100.00
5780;BME280;2916;49.798;10.022;2023-03-20T07:26:20;146550.75;;;9.15;100.00
5780;BME280;2916;49.798;10.022;2023-03-20T07:28:47;146518.53;;;9.02;100.00
5780;BME280;2916;49.798;10.022;2023-03-20T07:31:19;146573.09;;;9.24;100.00
5780;BME280;2916;49.798;10.022;2023-03-20T07:33:47;146570.56;;;9.23;100.00
5780;BME280;2916;49.798;10.022;2023-03-20T07:36:14;146540.84;;;9.11;100.00
5780;BME280;2916;49.798;10.022;2023-03-20T07:38:43;146540.84;;;9.11;100.00
5780;BME280;2916;49.798;10.022;2023-03-20T07:41:11;146601.59;;;9.36;100.00
5780;BME280;2916;49.798;10.022;2023-03-20T07:43:38;146605.31;;;9.38;100.00
5780;BME280;2916;49.798;10.022;2023-03-20T07:46:07;146590.47;;;9.31;100.00
5780;BME280;2916;49.798;10.022;2023-03-20T07:48:35;146640.03;;;9.52;100.00
5780;BME280;2916;49.798;10.022;2023-03-20T07:51:02;146643.75;;;9.53;100.00
5780;BME280;2916;49.798;10.022;2023-03-20T07:53:29;146621.44;;;9.44;100.00
5780;BME280;2916;49.798;10.022;2023-03-20T07:55:58;146623.91;;;9.45;100.00
5780;BME280;2916;49.798;10.022;2023-03-20T07:58:26;146654.91;;;9.58;100.00
5780;BME280;2916;49.798;10.022;2023-03-20T08:00:55;146664.81;;;9.62;100.00
5780;BME280;2916;49.798;10.022;2023-03-20T08:03:22;146677.25;;;9.67;100.00
5780;BME280;2916;49.798;10.022;2023-03-20T08:05:50;146663.59;;;9.62;99.35
5780;BME280;2916;49.798;10.022;2023-03-20T08:08:17;146675.97;;;9.67;99.26
5780;BME280;2916;49.798;10.022;2023-03-20T08:10:44;146672.28;;;9.65;98.98
5780;BME280;2916;49.798;10.022;2023-03-20T08:13:14;146654.91;;;9.58;98.58
5780;BME280;2916;49.798;10.022;2023-03-20T08:15:41;146658.66;;;9.59;98.92
5780;BME280;2916;49.798;10.022;2023-03-20T08:18:09;146635.06;;;9.50;99.10
5780;BME280;2916;49.798;10.022;2023-03-20T08:20:36;146669.81;;;9.64;98.88
5780;BME280;2916;49.798;10.022;2023-03-20T08:23:03;146644.97;;;9.54;98.38
5780;BME280;2916;49.798;10.022;2023-03-20T08:25:30;146679.72;;;9.68;97.84
5780;BME280;2916;49.798;10.022;2023-03-20T08:27:58;146653.66;;;9.57;98.34
5780;BME280;2916;49.798;10.022;2023-03-20T08:30:27;146715.69;;;9.83;97.73
5780;BME280;2916;49.798;10.022;2023-03-20T08:32:55;146667.34;;;9.63;97.34
5780;BME280;2916;49.798;10.022;2023-03-20T08:35:23;146694.56;;;9.74;97.03
5780;BME280;2916;49.798;10.022;2023-03-20T08:37:51;146734.31;;;9.91;97.74
5780;BME280;2916;49.798;10.022;2023-03-20T08:40:18;146729.31;;;9.89;97.21
5780;BME280;2916;49.798;10.022;2023-03-20T08:42:46;146721.88;;;9.86;96.87
5780;BME280;2916;49.798;10.022;2023-03-20T08:45:14;146714.47;;;9.82;97.19
5780;BME280;2916;49.798;10.022;2023-03-20T08:47:46;146672.28;;;9.65;97.06
5780;BME280;2916;49.798;10.022;2023-03-20T08:50:14;146698.31;;;9.76;97.05
5780;BME280;2916;49.798;10.022;2023-03-20T08:52:41;146711.94;;;9.81;97.43
5780;BME280;2916;49.798;10.022;2023-03-20T08:55:09;146644.97;;;9.54;97.01
5780;BME280;2916;49.798;10.022;2023-03-20T08:57:36;146692.09;;;9.73;96.45
5780;BME280;2916;49.798;10.022;2023-03-20T09:00:05;146687.16;;;9.71;97.11
5780;BME280;2916;49.798;10.022;2023-03-20T09:02:34;146767.78;;;10.04;96.33
5780;BME280;2916;49.798;10.022;2023-03-20T09:05:03;146801.28;;;10.18;95.78
5780;BME280;2916;49.798;10.022;2023-03-20T09:07:31;146649.97;;;9.56;94.72
5780;BME280;2916;49.798;10.022;2023-03-20T09:09:59;146749.16;;;9.97;95.83
5780;BME280;2916;49.798;10.022;2023-03-20T09:12:26;146765.31;;;10.03;95.41
5780;BME280;2916;49.798;10.022;2023-03-20T09:14:53;146786.38;;;10.12;95.78
5780;BME280;2916;49.798;10.022;2023-03-20T09:17:21;146719.41;;;9.84;95.52
5780;BME280;2916;49.798;10.022;2023-03-20T09:19:48;146731.78;;;9.90;94.73
5780;BME280;2916;49.798;10.022;2023-03-20T09:22:16;146778.94;;;10.09;94.47
5780;BME280;2916;49.798;10.022;2023-03-20T09:24:43;146721.88;;;9.86;94.73
5780;BME280;2916;49.798;10.022;2023-03-20T09:27:11;146783.91;;;10.11;94.74
5780;BME280;2916;49.798;10.022;2023-03-20T09:29:39;146791.38;;;10.14;94.56
5780;BME280;2916;49.798;10.022;2023-03-20T09:32:09;146801.28;;;10.18;94.30
5780;BME280;2916;49.798;10.022;2023-03-20T09:34:37;146808.69;;;10.21;94.08
5780;BME280;2916;49.798;10.022;2023-03-20T09:37:04;146735.53;;;9.91;93.55
5780;BME280;2916;49.798;10.022;2023-03-20T09:39:33;146811.22;;;10.22;93.24
5780;BME280;2916;49.798;10.022;2023-03-20T09:42:09;146862.13;;;10.43;93.25
5780;BME280;2916;49.798;10.022;2023-03-20T09:44:53;146886.94;;;10.53;93.04
5780;BME280;2916;49.798;10.022;2023-03-20T09:47:34;146806.22;;;10.20;92.63
5780;BME280;2916;49.798;10.022;2023-03-20T09:50:20;146878.25;;;10.50;92.49
5780;BME280;2916;49.798;10.022;2023-03-20T09:52:58;146798.78;;;10.17;93.38
5780;BME280;2916;49.798;10.022;2023-03-20T09:55:36;146930.34;;;10.71;93.24
5780;BME280;2916;49.798;10.022;2023-03-20T09:58:14;146970.06;;;10.88;91.65
5780;BME280;2916;49.798;10.022;2023-03-20T10:01:04;146930.34;;;10.71;90.90
5780;BME280;2916;49.798;10.022;2023-03-20T10:03:42;146900.59;;;10.59;91.28
5780;BME280;2916;49.798;10.022;2023-03-20T10:06:16;146886.94;;;10.53;91.48
5780;BME280;2916;49.798;10.022;2023-03-20T10:08:45;146920.44;;;10.67;91.69
5780;BME280;2916;49.798;10.022;2023-03-20T10:11:37;146971.31;;;10.88;90.90
5780;BME280;2916;49.798;10.022;2023-03-20T10:14:23;146965.13;;;10.86;90.84
5780;BME280;2916;49.798;10.022;2023-03-20T10:17:09;146965.13;;;10.86;90.51
5780;BME280;2916;49.798;10.022;2023-03-20T10:19:50;146947.75;;;10.78;89.49
5780;BME280;2916;49.798;10.022;2023-03-20T10:22:22;147006.06;;;11.02;89.02
5780;BME280;2916;49.798;10.022;2023-03-20T10:24:59;147017.25;;;11.07;88.44
5780;BME280;2916;49.798;10.022;2023-03-20T10:27:37;147034.63;;;11.14;88.60
5780;BME280;2916;49.798;10.022;2023-03-20T10:30:28;147025.94;;;11.11;88.34
5780;BME280;2916;49.798;10.022;2023-03-20T10:33:11;146972.59;;;10.89;88.05
5780;BME280;2916;49.798;10.022;2023-03-20T10:35:53;146984.97;;;10.94;87.42
5780;BME280;2916;49.798;10.022;2023-03-20T10:38:32;146987.47;;;10.95;87.56
5780;BME280;2916;49.798;10.022;2023-03-20T10:41:02;146709.47;;;9.80;87.30
5780;BME280;2916;49.798;10.022;2023-03-20T10:43:34;147069.41;;;11.28;87.71
5780;BME280;2916;49.798;10.022;2023-03-20T10:46:07;147065.66;;;11.27;87.60
5780;BME280;2916;49.798;10.022;2023-03-20T10:48:42;147021.00;;;11.09;87.79
5780;BME280;2916;49.798;10.022;2023-03-20T10:51:15;147047.03;;;11.19;87.02
5780;BME280;2916;49.798;10.022;2023-03-20T10:53:48;147114.06;;;11.47;86.74
5780;BME280;2916;49.798;10.022;2023-03-20T10:56:26;147130.22;;;11.53;86.82
5780;BME280;2916;49.798;10.022;2023-03-20T10:59:03;147121.53;;;11.50;85.88
5780;BME280;2916;49.798;10.022;2023-03-20T11:01:31;147177.44;;;11.73;86.13
5780;BME280;2916;49.798;10.022;2023-03-20T11:03:58;147220.97;;;11.91;85.57
5780;BME280;2916;49.798;10.022;2023-03-20T11:06:30;147234.59;;;11.96;84.33
5780;BME280;2916;49.798;10.022;2023-03-20T11:09:11;147183.66;;;11.75;84.11
5780;BME280;2916;49.798;10.022;2023-03-20T11:11:46;147178.66;;;11.73;84.47
5780;BME280;2916;49.798;10.022;2023-03-20T11:14:19;147061.94;;;11.25;84.49
5780;BME280;2916;49.798;10.022;2023-03-20T11:16:49;147258.19;;;12.06;84.89
5780;BME280;2916;49.798;10.022;2023-03-20T11:19:20;147314.09;;;12.29;83.85
5780;BME280;2916;49.798;10.022;2023-03-20T11:21:50;147210.97;;;11.87;82.77
5780;BME280;2916;49.798;10.022;2023-03-20T11:24:26;147249.53;;;12.02;82.00
5780;BME280;2916;49.798;10.022;2023-03-20T11:27:05;147227.16;;;11.93;81.84
5780;BME280;2916;49.798;10.022;2023-03-20T11:29:36;147276.81;;;12.14;83.19
5780;BME280;2916;49.798;10.022;2023-03-20T11:32:10;147273.13;;;12.12;81.90
5780;BME280;2916;49.798;10.022;2023-03-20T11:34:43;147270.63;;;12.11;81.95
5780;BME280;2916;49.798;10.022;2023-03-20T11:37:22;147136.47;;;11.56;82.91
5780;BME280;2916;49.798;10.022;2023-03-20T11:39:57;147228.38;;;11.94;82.84
5780;BME280;2916;49.798;10.022;2023-03-20T11:42:27;147178.66;;;11.73;81.83
5780;BME280;2916;49.798;10.022;2023-03-20T11:45:12;147300.44;;;12.23;82.35
5780;BME280;2916;49.798;10.022;2023-03-20T11:47:42;147244.53;;;12.00;82.47
5780;BME280;2916;49.798;10.022;2023-03-20T11:50:28;147266.88;;;12.10;84.25
5780;BME280;2916;49.798;10.022;2023-03-20T11:52:58;147247.00;;;12.01;83.95
5780;BME280;2916;49.798;10.022;2023-03-20T11:55:29;147305.41;;;12.25;83.98
5780;BME280;2916;49.798;10.022;2023-03-20T11:57:59;147228.38;;;11.94;83.92
5780;BME280;2916;49.798;10.022;2023-03-20T12:00:36;147240.84;;;11.99;85.07
5780;BME280;2916;49.798;10.022;2023-03-20T12:03:36;147188.59;;;11.77;85.44
5780;BME280;2916;49.798;10.022;2023-03-20T12:06:07;147167.50;;;11.69;83.97
5780;BME280;2916;49.798;10.022;2023-03-20T12:08:38;147240.84;;;11.99;83.17
5780;BME280;2916;49.798;10.022;2023-03-20T12:11:36;147126.53;;;11.52;82.82
5780;BME280;2916;49.798;10.022;2023-03-20T12:14:14;147228.38;;;11.94;82.83
5780;BME280;2916;49.798;10.022;2023-03-20T12:16:45;147202.34;;;11.83;81.27
5780;BME280;2916;49.798;10.022;2023-03-20T12:19:19;147271.88;;;12.12;81.95
5780;BME280;2916;49.798;10.022;2023-03-20T12:21:59;147288.03;;;12.18;82.20
5780;BME280;2916;49.798;10.022;2023-03-20T12:24:36;147394.91;;;12.62;81.01
5780;BME280;2916;49.798;10.022;2023-03-20T12:27:23;147480.66;;;12.97;79.90
5780;BME280;2916;49.798;10.022;2023-03-20T12:29:59;147373.72;;;12.53;79.74
5780;BME280;2916;49.798;10.022;2023-03-20T12:32:39;147449.53;;;12.85;79.72
5780;BME280;2916;49.798;10.022;2023-03-20T12:35:14;147515.44;;;13.12;79.07
5780;BME280;2916;49.798;10.022;2023-03-20T12:37:42;147404.84;;;12.66;79.62
5780;BME280;2916;49.798;10.022;2023-03-20T12:40:16;147347.66;;;12.43;80.00
5780;BME280;2916;49.798;10.022;2023-03-20T12:43:01;147422.25;;;12.73;78.80
5780;BME280;2916;49.798;10.022;2023-03-20T12:45:37;147340.19;;;12.40;79.63
5780;BME280;2916;49.798;10.022;2023-03-20T12:48:35;147302.94;;;12.24;81.31
5780;BME280;2916;49.798;10.022;2023-03-20T12:51:15;147320.31;;;12.32;81.18
5780;BME280;2916;49.798;10.022;2023-03-20T12:54:03;147208.50;;;11.86;84.68
5780;BME280;2916;49.798;10.022;2023-03-20T12:56:56;147206.03;;;11.85;84.04
5780;BME280;2916;49.798;10.022;2023-03-20T12:59:38;147259.47;;;12.07;83.50
5780;BME280;2916;49.798;10.022;2023-03-20T13:02:25;147250.78;;;12.03;84.64
5780;BME280;2916;49.798;10.022;2023-03-20T13:05:15;147193.59;;;11.79;85.47
5780;BME280;2916;49.798;10.022;2023-03-20T13:08:04;147235.84;;;11.97;84.31
5780;BME280;2916;49.798;10.022;2023-03-20T13:10:38;147263.19;;;12.08;84.92
5780;BME280;2916;49.798;10.022;2023-03-20T13:13:20;147286.75;;;12.18;86.57
5780;BME280;2916;49.798;10.022;2023-03-20T13:16:09;147259.47;;;12.07;86.40
5780;BME280;2916;49.798;10.022;2023-03-20T13:18:57;147243.31;;;12.00;86.20
5780;BME280;2916;49.798;10.022;2023-03-20T13:21:32;147203.56;;;11.84;86.90
5780;BME280;2916;49.798;10.022;2023-03-20T13:24:21;147261.94;;;12.08;87.26
5780;BME280;2916;49.798;10.022;2023-03-20T13:27:04;147218.44;;;11.90;86.62
5780;BME280;2916;49.798;10.022;2023-03-20T13:29:46;147151.34;;;11.62;87.13
5780;BME280;2916;49.798;10.022;2023-03-20T13:32:29;147256.94;;;12.06;86.08
5780;BME280;2916;49.798;10.022;2023-03-20T13:35:21;147284.28;;;12.17;85.55
5780;BME280;2916;49.798;10.022;2023-03-20T13:37:55;147116.59;;;11.48;84.24
5780;BME280;2916;49.798;10.022;2023-03-20T13:40:28;147124.00;;;11.51;84.44